sensor_id;sensor_type;location;lat;lon;timestamp;pressure;altitude;pressure_sealevel;temperature;humidity
50682;BME280;36779;52.168;20.878;2023-02-14T00:00:20;102012.69;;;3.78;76.60
50682;BME280;36779;52.168;20.878;2023-02-14T00:03:09;102008.50;;;3.78;76.53
50682;BME280;36779;52.168;20.878;2023-02-14T00:05:38;102008.33;;;3.77;76.63
50682;BME280;36779;52.168;20.878;2023-02-14T00:08:07;102013.64;;;3.77;76.58
50682;BME280;36779;52.168;20.878;2023-02-14T00:10:37;102022.14;;;3.75;76.65
50682;BME280;36779;52.168;20.878;2023-02-14T00:13:05;102018.23;;;3.77;76.60
50682;BME280;36779;52.168;20.878;2023-02-14T00:15:34;102011.89;;;3.77;76.80
50682;BME280;36779;52.168;20.878;2023-02-14T00:18:05;102009.45;;;3.76;76.63
50682;BME280;36779;52.168;20.878;2023-02-14T00:20:34;102013.08;;;3.74;76.65
50682;BME280;36779;52.168;20.878;2023-02-14T00:23:04;102015.35;;;3.74;76.72
50682;BME280;36779;52.168;20.878;2023-02-14T00:25:34;102019.44;;;3.73;76.71
50682;BME280;36779;52.168;20.878;2023-02-14T00:28:02;102021.61;;;3.72;76.61
50682;BME280;36779;52.168;20.878;2023-02-14T00:30:31;102027.91;;;3.73;76.55
50682;BME280;36779;52.168;20.878;2023-02-14T00:33:06;102030.41;;;3.72;76.60
50682;BME280;36779;52.168;20.878;2023-02-14T00:35:38;102036.98;;;3.71;76.46
50682;BME280;36779;52.168;20.878;2023-02-14T00:38:06;102041.01;;;3.68;76.58
50682;BME280;36779;52.168;20.878;2023-02-14T00:40:36;102039.51;;;3.66;76.68
50682;BME280;36779;52.168;20.878;2023-02-14T00:43:05;102043.25;;;3.65;76.56
50682;BME280;36779;52.168;20.878;2023-02-14T00:45:34;102046.00;;;3.63;76.57
50682;BME280;36779;52.168;20.878;2023-02-14T00:48:04;102051.06;;;3.61;76.58
50682;BME280;36779;52.168;20.878;2023-02-14T00:50:33;102045.80;;;3.60;76.64
50682;BME280;36779;52.168;20.878;2023-02-14T00:53:02;102047.04;;;3.60;76.63
50682;BME280;36779;52.168;20.878;2023-02-14T00:55:31;102041.77;;;3.60;76.62
50682;BME280;36779;52.168;20.878;2023-02-14T00:57:59;102042.69;;;3.59;76.72
50682;BME280;36779;52.168;20.878;2023-02-14T01:00:29;102046.04;;;3.59;76.66
50682;BME280;36779;52.168;20.878;2023-02-14T01:02:58;102044.08;;;3.59;76.69
50682;BME280;36779;52.168;20.878;2023-02-14T01:05:27;102041.40;;;3.60;76.66
50682;BME280;36779;52.168;20.878;2023-02-14T01:07:56;102043.96;;;3.62;76.63
50682;BME280;36779;52.168;20.878;2023-02-14T01:10:27;102042.55;;;3.62;76.52
50682;BME280;36779;52.168;20.878;2023-02-14T01:12:59;102038.69;;;3.62;76.73
50682;BME280;36779;52.168;20.878;2023-02-14T01:15:31;102039.04;;;3.62;76.63
50682;BME280;36779;52.168;20.878;2023-02-14T01:18:00;102033.67;;;3.60;76.62
50682;BME280;36779;52.168;20.878;2023-02-14T01:20:29;102036.41;;;3.58;76.63
50682;BME280;36779;52.168;20.878;2023-02-14T01:22:59;102040.17;;;3.57;76.74
50682;BME280;36779;52.168;20.878;2023-02-14T01:25:28;102036.44;;;3.54;76.53
50682;BME280;36779;52.168;20.878;2023-02-14T01:28:00;102035.14;;;3.51;76.58
50682;BME280;36779;52.168;20.878;2023-02-14T01:30:32;102033.79;;;3.50;76.67
50682;BME280;36779;52.168;20.878;2023-02-14T01:33:01;102033.48;;;3.53;76.65
50682;BME280;36779;52.168;20.878;2023-02-14T01:35:31;102041.59;;;3.52;76.60
50682;BME280;36779;52.168;20.878;2023-02-14T01:38:01;102047.52;;;3.50;76.57
50682;BME280;36779;52.168;20.878;2023-02-14T01:40:29;102042.88;;;3.48;76.58
50682;BME280;36779;52.168;20.878;2023-02-14T01:42:59;102043.64;;;3.47;76.73
50682;BME280;36779;52.168;20.878;2023-02-14T01:45:28;102046.63;;;3.44;76.65
50682;BME280;36779;52.168;20.878;2023-02-14T01:48:00;102054.89;;;3.40;76.62
50682;BME280;36779;52.168;20.878;2023-02-14T01:50:32;102056.08;;;3.37;76.68
50682;BME280;36779;52.168;20.878;2023-02-14T01:53:05;102052.42;;;3.36;76.60
50682;BME280;36779;52.168;20.878;2023-02-14T01:55:40;102053.90;;;3.35;76.66
50682;BME280;36779;52.168;20.878;2023-02-14T01:58:12;102043.80;;;3.33;76.65
50682;BME280;36779;52.168;20.878;2023-02-14T02:00:43;102039.94;;;3.33;76.64
50682;BME280;36779;52.168;20.878;2023-02-14T02:03:28;102041.33;;;3.33;76.65
50682;BME280;36779;52.168;20.878;2023-02-14T02:06:05;102045.88;;;3.33;76.80
50682;BME280;36779;52.168;20.878;2023-02-14T02:08:40;102048.66;;;3.30;76.72
50682;BME280;36779;52.168;20.878;2023-02-14T02:11:10;102051.84;;;3.26;76.64
50682;BME280;36779;52.168;20.878;2023-02-14T02:13:40;102050.08;;;3.23;76.65
50682;BME280;36779;52.168;20.878;2023-02-14T02:16:28;102048.33;;;3.23;76.60
50682;BME280;36779;52.168;20.878;2023-02-14T02:19:16;102046.40;;;3.23;76.75
50682;BME280;36779;52.168;20.878;2023-02-14T02:22:06;102050.96;;;3.26;76.77
50682;BME280;36779;52.168;20.878;2023-02-14T02:24:51;102039.95;;;3.29;76.74
50682;BME280;36779;52.168;20.878;2023-02-14T02:27:51;102045.31;;;3.31;76.79
50682;BME280;36779;52.168;20.878;2023-02-14T02:31:05;102046.05;;;3.30;76.69
50682;BME280;36779;52.168;20.878;2023-02-14T02:34:07;102056.67;;;3.25;76.80
50682;BME280;36779;52.168;20.878;2023-02-14T02:36:59;102061.03;;;3.22;76.68
50682;BME280;36779;52.168;20.878;2023-02-14T02:42:28;102067.25;;;3.17;76.72
50682;BME280;36779;52.168;20.878;2023-02-14T02:45:09;102072.73;;;3.16;76.73
50682;BME280;36779;52.168;20.878;2023-02-14T02:47:43;102078.23;;;3.15;76.71
50682;BME280;36779;52.168;20.878;2023-02-14T02:50:22;102082.83;;;3.14;76.63
50682;BME280;36779;52.168;20.878;2023-02-14T02:53:18;102083.42;;;3.13;76.65
50682;BME280;36779;52.168;20.878;2023-02-14T02:55:56;102083.21;;;3.10;76.70
50682;BME280;36779;52.168;20.878;2023-02-14T02:58:49;102084.91;;;3.07;76.62
50682;BME280;36779;52.168;20.878;2023-02-14T03:01:22;102087.51;;;3.04;76.72
50682;BME280;36779;52.168;20.878;2023-02-14T03:03:58;102088.10;;;3.03;76.75
50682;BME280;36779;52.168;20.878;2023-02-14T03:06:47;102081.77;;;3.07;76.81
50682;BME280;36779;52.168;20.878;2023-02-14T03:15:10;102085.32;;;3.06;76.74
50682;BME280;36779;52.168;20.878;2023-02-14T03:17:52;102084.04;;;3.07;76.83
50682;BME280;36779;52.168;20.878;2023-02-14T03:20:33;102086.98;;;3.04;76.75
50682;BME280;36779;52.168;20.878;2023-02-14T03:23:10;102090.80;;;3.02;76.79
50682;BME280;36779;52.168;20.878;2023-02-14T03:25:48;102091.89;;;3.01;76.91
50682;BME280;36779;52.168;20.878;2023-02-14T03:28:31;102091.60;;;3.00;76.84
50682;BME280;36779;52.168;20.878;2023-02-14T03:31:09;102086.05;;;2.98;76.79
50682;BME280;36779;52.168;20.878;2023-02-14T03:33:49;102088.05;;;2.96;76.75
50682;BME280;36779;52.168;20.878;2023-02-14T03:36:23;102087.75;;;2.95;76.76
50682;BME280;36779;52.168;20.878;2023-02-14T03:38:58;102090.22;;;2.95;76.87
50682;BME280;36779;52.168;20.878;2023-02-14T03:41:36;102089.23;;;2.94;76.77
50682;BME280;36779;52.168;20.878;2023-02-14T03:44:09;102091.22;;;2.93;76.75
50682;BME280;36779;52.168;20.878;2023-02-14T03:46:43;102092.32;;;2.88;76.71
50682;BME280;36779;52.168;20.878;2023-02-14T03:49:17;102095.52;;;2.87;76.85
50682;BME280;36779;52.168;20.878;2023-02-14T03:51:49;102095.25;;;2.89;76.87
50682;BME280;36779;52.168;20.878;2023-02-14T03:54:21;102097.86;;;2.90;76.95
50682;BME280;36779;52.168;20.878;2023-02-14T03:56:55;102094.27;;;2.87;76.89
50682;BME280;36779;52.168;20.878;2023-02-14T03:59:28;102087.25;;;2.88;76.85
50682;BME280;36779;52.168;20.878;2023-02-14T04:02:02;102088.86;;;2.91;76.89
50682;BME280;36779;52.168;20.878;2023-02-14T04:04:36;102089.60;;;2.90;76.80
50682;BME280;36779;52.168;20.878;2023-02-14T04:07:14;102092.50;;;2.88;76.72
50682;BME280;36779;52.168;20.878;2023-02-14T04:09:46;102089.35;;;2.84;76.68
50682;BME280;36779;52.168;20.878;2023-02-14T04:12:19;102082.31;;;2.80;76.85
50682;BME280;36779;52.168;20.878;2023-02-14T04:15:04;102077.92;;;2.80;76.91
50682;BME280;36779;52.168;20.878;2023-02-14T04:17:33;102076.39;;;2.79;76.88
50682;BME280;36779;52.168;20.878;2023-02-14T04:20:31;102078.95;;;2.77;76.83
50682;BME280;36779;52.168;20.878;2023-02-14T04:22:59;102084.86;;;2.78;76.97
50682;BME280;36779;52.168;20.878;2023-02-14T04:25:32;102076.58;;;2.79;76.91
50682;BME280;36779;52.168;20.878;2023-02-14T04:28:01;102068.66;;;2.79;76.90
50682;BME280;36779;52.168;20.878;2023-02-14T04:30:32;102074.59;;;2.76;76.86
50682;BME280;36779;52.168;20.878;2023-02-14T04:33:03;102081.36;;;2.74;76.89
50682;BME280;36779;52.168;20.878;2023-02-14T04:35:32;102082.23;;;2.74;76.99
50682;BME280;36779;52.168;20.878;2023-02-14T04:38:09;102085.26;;;2.74;76.93
50682;BME280;36779;52.168;20.878;2023-02-14T04:40:38;102087.09;;;2.72;76.92
50682;BME280;36779;52.168;20.878;2023-02-14T04:43:07;102092.52;;;2.72;76.92
50682;BME280;36779;52.168;20.878;2023-02-14T04:45:38;102098.56;;;2.74;76.94
50682;BME280;36779;52.168;20.878;2023-02-14T04:48:09;102103.90;;;2.77;76.99
50682;BME280;36779;52.168;20.878;2023-02-14T04:50:41;102103.42;;;2.75;76.85
50682;BME280;36779;52.168;20.878;2023-02-14T04:53:11;102109.27;;;2.75;76.91
50682;BME280;36779;52.168;20.878;2023-02-14T04:55:40;102111.66;;;2.72;76.97
50682;BME280;36779;52.168;20.878;2023-02-14T04:58:13;102110.52;;;2.70;76.96
50682;BME280;36779;52.168;20.878;2023-02-14T05:00:42;102110.60;;;2.68;77.01
50682;BME280;36779;52.168;20.878;2023-02-14T05:03:14;102117.55;;;2.66;76.97
50682;BME280;36779;52.168;20.878;2023-02-14T05:05:43;102118.55;;;2.63;76.93
50682;BME280;36779;52.168;20.878;2023-02-14T05:08:14;102117.27;;;2.65;76.95
50682;BME280;36779;52.168;20.878;2023-02-14T05:10:43;102121.71;;;2.63;76.94
50682;BME280;36779;52.168;20.878;2023-02-14T05:13:13;102123.81;;;2.63;76.97
50682;BME280;36779;52.168;20.878;2023-02-14T05:15:44;102123.41;;;2.65;76.95
50682;BME280;36779;52.168;20.878;2023-02-14T05:18:16;102127.79;;;2.65;77.10
50682;BME280;36779;52.168;20.878;2023-02-14T05:20:48;102130.54;;;2.66;77.13
50682;BME280;36779;52.168;20.878;2023-02-14T05:23:19;102127.23;;;2.66;77.04
50682;BME280;36779;52.168;20.878;2023-02-14T05:25:49;102127.81;;;2.64;77.16
50682;BME280;36779;52.168;20.878;2023-02-14T05:28:19;102129.92;;;2.64;77.07
50682;BME280;36779;52.168;20.878;2023-02-14T05:30:51;102139.47;;;2.63;77.12
50682;BME280;36779;52.168;20.878;2023-02-14T05:33:24;102139.08;;;2.59;77.05
50682;BME280;36779;52.168;20.878;2023-02-14T05:35:53;102138.23;;;2.58;76.99
50682;BME280;36779;52.168;20.878;2023-02-14T05:38:24;102138.97;;;2.58;77.04
50682;BME280;36779;52.168;20.878;2023-02-14T05:40:53;102144.70;;;2.59;77.12
50682;BME280;36779;52.168;20.878;2023-02-14T05:43:25;102146.60;;;2.61;76.99
50682;BME280;36779;52.168;20.878;2023-02-14T05:46:05;102140.15;;;2.59;77.07
50682;BME280;36779;52.168;20.878;2023-02-14T05:48:36;102143.90;;;2.57;77.14
50682;BME280;36779;52.168;20.878;2023-02-14T05:51:07;102149.40;;;2.56;77.09
50682;BME280;36779;52.168;20.878;2023-02-14T05:53:36;102145.03;;;2.55;77.19
50682;BME280;36779;52.168;20.878;2023-02-14T05:56:06;102143.99;;;2.55;77.19
50682;BME280;36779;52.168;20.878;2023-02-14T05:58:35;102149.24;;;2.55;77.11
50682;BME280;36779;52.168;20.878;2023-02-14T06:01:04;102152.44;;;2.55;76.94
50682;BME280;36779;52.168;20.878;2023-02-14T06:03:33;102155.92;;;2.55;77.02
50682;BME280;36779;52.168;20.878;2023-02-14T06:06:01;102153.34;;;2.54;77.09
50682;BME280;36779;52.168;20.878;2023-02-14T06:08:31;102156.56;;;2.57;77.10
50682;BME280;36779;52.168;20.878;2023-02-14T06:10:59;102162.90;;;2.56;76.93
50682;BME280;36779;52.168;20.878;2023-02-14T06:13:29;102163.85;;;2.55;77.12
50682;BME280;36779;52.168;20.878;2023-02-14T06:15:57;102162.86;;;2.54;77.06
50682;BME280;36779;52.168;20.878;2023-02-14T06:18:26;102167.64;;;2.52;77.12
50682;BME280;36779;52.168;20.878;2023-02-14T06:20:56;102167.58;;;2.50;77.25
50682;BME280;36779;52.168;20.878;2023-02-14T06:23:26;102163.08;;;2.48;77.16
50682;BME280;36779;52.168;20.878;2023-02-14T06:25:54;102165.08;;;2.51;77.26
50682;BME280;36779;52.168;20.878;2023-02-14T06:28:23;102173.10;;;2.52;77.09
50682;BME280;36779;52.168;20.878;2023-02-14T06:30:52;102166.45;;;2.52;77.16
50682;BME280;36779;52.168;20.878;2023-02-14T06:33:21;102168.89;;;2.52;77.18
50682;BME280;36779;52.168;20.878;2023-02-14T06:35:52;102172.91;;;2.49;77.20
50682;BME280;36779;52.168;20.878;2023-02-14T06:38:21;102176.25;;;2.44;77.10
50682;BME280;36779;52.168;20.878;2023-02-14T06:40:50;102178.39;;;2.40;77.08
50682;BME280;36779;52.168;20.878;2023-02-14T06:43:18;102177.86;;;2.35;77.08
50682;BME280;36779;52.168;20.878;2023-02-14T06:45:51;102179.25;;;2.35;77.12
50682;BME280;36779;52.168;20.878;2023-02-14T06:48:19;102183.20;;;2.38;77.19
50682;BME280;36779;52.168;20.878;2023-02-14T06:50:48;102184.60;;;2.42;77.36
50682;BME280;36779;52.168;20.878;2023-02-14T06:53:17;102180.98;;;2.44;77.31
50682;BME280;36779;52.168;20.878;2023-02-14T06:55:46;102180.59;;;2.45;77.23
50682;BME280;36779;52.168;20.878;2023-02-14T06:58:17;102181.59;;;2.46;77.22
50682;BME280;36779;52.168;20.878;2023-02-14T07:00:47;102182.65;;;2.46;77.34
50682;BME280;36779;52.168;20.878;2023-02-14T07:03:16;102183.02;;;2.46;77.31
50682;BME280;36779;52.168;20.878;2023-02-14T07:05:48;102184.41;;;2.46;77.35
50682;BME280;36779;52.168;20.878;2023-02-14T07:08:17;102188.11;;;2.46;77.32
50682;BME280;36779;52.168;20.878;2023-02-14T07:10:46;102185.80;;;2.47;77.22
50682;BME280;36779;52.168;20.878;2023-02-14T07:13:15;102179.31;;;2.47;77.26
50682;BME280;36779;52.168;20.878;2023-02-14T07:15:46;102178.41;;;2.51;77.43
50682;BME280;36779;52.168;20.878;2023-02-14T07:18:14;102182.53;;;2.57;77.51
50682;BME280;36779;52.168;20.878;2023-02-14T07:20:43;102184.76;;;2.63;77.47
50682;BME280;36779;52.168;20.878;2023-02-14T07:23:15;102182.36;;;2.70;77.50
50682;BME280;36779;52.168;20.878;2023-02-14T07:25:46;102190.47;;;2.72;77.30
50682;BME280;36779;52.168;20.878;2023-02-14T07:28:15;102190.34;;;2.71;77.33
50682;BME280;36779;52.168;20.878;2023-02-14T07:30:46;102194.98;;;2.74;77.41
50682;BME280;36779;52.168;20.878;2023-02-14T07:33:16;102196.94;;;2.73;77.48
50682;BME280;36779;52.168;20.878;2023-02-14T07:35:47;102203.44;;;2.73;77.29
50682;BME280;36779;52.168;20.878;2023-02-14T07:38:16;102202.48;;;2.71;77.41
50682;BME280;36779;52.168;20.878;2023-02-14T07:40:47;102201.60;;;2.71;77.30
50682;BME280;36779;52.168;20.878;2023-02-14T07:43:20;102198.83;;;2.74;77.50
50682;BME280;36779;52.168;20.878;2023-02-14T07:45:49;102194.00;;;2.80;77.52
50682;BME280;36779;52.168;20.878;2023-02-14T07:48:17;102195.67;;;2.86;77.51
50682;BME280;36779;52.168;20.878;2023-02-14T07:50:47;102199.48;;;2.91;77.46
50682;BME280;36779;52.168;20.878;2023-02-14T07:53:16;102197.77;;;2.94;77.47
50682;BME280;36779;52.168;20.878;2023-02-14T07:55:49;102199.45;;;2.95;77.43
50682;BME280;36779;52.168;20.878;2023-02-14T07:58:18;102202.65;;;2.95;77.41
50682;BME280;36779;52.168;20.878;2023-02-14T08:00:47;102211.44;;;2.95;77.41
50682;BME280;36779;52.168;20.878;2023-02-14T08:03:16;102212.48;;;2.95;77.49
50682;BME280;36779;52.168;20.878;2023-02-14T08:05:49;102215.27;;;2.95;77.32
50682;BME280;36779;52.168;20.878;2023-02-14T08:08:25;102224.78;;;2.95;77.35
50682;BME280;36779;52.168;20.878;2023-02-14T08:10:54;102231.41;;;2.96;77.39
50682;BME280;36779;52.168;20.878;2023-02-14T08:13:23;102232.44;;;2.96;77.48
50682;BME280;36779;52.168;20.878;2023-02-14T08:15:53;102236.52;;;2.95;77.43
50682;BME280;36779;52.168;20.878;2023-02-14T08:18:36;102243.79;;;2.94;77.31
50682;BME280;36779;52.168;20.878;2023-02-14T08:21:09;102244.58;;;2.92;77.33
50682;BME280;36779;52.168;20.878;2023-02-14T08:23:38;102246.20;;;2.91;77.45
50682;BME280;36779;52.168;20.878;2023-02-14T08:26:10;102249.70;;;2.91;77.42
50682;BME280;36779;52.168;20.878;2023-02-14T08:28:39;102245.59;;;2.85;77.40
50682;BME280;36779;52.168;20.878;2023-02-14T08:31:09;102249.34;;;2.83;77.42
50682;BME280;36779;52.168;20.878;2023-02-14T08:33:38;102252.05;;;2.82;77.45
50682;BME280;36779;52.168;20.878;2023-02-14T08:36:07;102256.56;;;2.82;77.55
50682;BME280;36779;52.168;20.878;2023-02-14T08:38:36;102258.85;;;2.87;77.52
50682;BME280;36779;52.168;20.878;2023-02-14T08:41:05;102257.67;;;2.93;77.66
50682;BME280;36779;52.168;20.878;2023-02-14T08:43:37;102259.31;;;3.00;77.72
50682;BME280;36779;52.168;20.878;2023-02-14T08:46:06;102255.04;;;3.06;77.55
50682;BME280;36779;52.168;20.878;2023-02-14T08:48:35;102246.70;;;3.11;77.71
50682;BME280;36779;52.168;20.878;2023-02-14T08:51:08;102250.13;;;3.14;77.55
50682;BME280;36779;52.168;20.878;2023-02-14T08:53:37;102247.40;;;3.08;77.46
50682;BME280;36779;52.168;20.878;2023-02-14T08:56:08;102252.52;;;3.03;77.47
50682;BME280;36779;52.168;20.878;2023-02-14T08:58:37;102253.98;;;3.05;77.52
50682;BME280;36779;52.168;20.878;2023-02-14T09:01:09;102251.96;;;3.08;77.56
50682;BME280;36779;52.168;20.878;2023-02-14T09:03:39;102251.27;;;3.07;77.53
50682;BME280;36779;52.168;20.878;2023-02-14T09:06:10;102253.73;;;3.07;77.50
50682;BME280;36779;52.168;20.878;2023-02-14T09:08:41;102256.77;;;3.14;77.61
50682;BME280;36779;52.168;20.878;2023-02-14T09:11:15;102258.41;;;3.21;77.68
50682;BME280;36779;52.168;20.878;2023-02-14T09:13:48;102258.70;;;3.26;77.60
50682;BME280;36779;52.168;20.878;2023-02-14T09:16:18;102258.16;;;3.26;77.58
50682;BME280;36779;52.168;20.878;2023-02-14T09:18:47;102258.30;;;3.27;77.61
50682;BME280;36779;52.168;20.878;2023-02-14T09:21:19;102254.58;;;3.28;77.53
50682;BME280;36779;52.168;20.878;2023-02-14T09:23:48;102259.02;;;3.30;77.67
50682;BME280;36779;52.168;20.878;2023-02-14T09:26:17;102257.84;;;3.37;77.75
50682;BME280;36779;52.168;20.878;2023-02-14T09:28:47;102258.54;;;3.41;77.64
50682;BME280;36779;52.168;20.878;2023-02-14T09:31:18;102264.27;;;3.42;77.67
50682;BME280;36779;52.168;20.878;2023-02-14T09:33:49;102264.98;;;3.42;77.51
50682;BME280;36779;52.168;20.878;2023-02-14T09:36:36;102268.41;;;3.44;77.59
50682;BME280;36779;52.168;20.878;2023-02-14T09:39:05;102266.86;;;3.43;77.49
50682;BME280;36779;52.168;20.878;2023-02-14T09:41:54;102260.35;;;3.40;77.44
50682;BME280;36779;52.168;20.878;2023-02-14T09:44:32;102260.80;;;3.41;77.69
50682;BME280;36779;52.168;20.878;2023-02-14T09:47:08;102266.30;;;3.44;77.57
50682;BME280;36779;52.168;20.878;2023-02-14T09:49:40;102267.54;;;3.47;77.75
50682;BME280;36779;52.168;20.878;2023-02-14T09:52:12;102266.54;;;3.54;77.68
50682;BME280;36779;52.168;20.878;2023-02-14T09:54:48;102265.89;;;3.61;77.67
50682;BME280;36779;52.168;20.878;2023-02-14T09:57:26;102262.21;;;3.61;77.62
50682;BME280;36779;52.168;20.878;2023-02-14T10:00:06;102264.08;;;3.62;77.65
50682;BME280;36779;52.168;20.878;2023-02-14T10:02:50;102265.32;;;3.65;77.68
50682;BME280;36779;52.168;20.878;2023-02-14T10:05:25;102267.77;;;3.66;77.66
50682;BME280;36779;52.168;20.878;2023-02-14T10:07:59;102272.12;;;3.67;77.58
50682;BME280;36779;52.168;20.878;2023-02-14T10:10:36;102273.46;;;3.68;77.66
50682;BME280;36779;52.168;20.878;2023-02-14T10:13:17;102275.86;;;3.70;77.60
50682;BME280;36779;52.168;20.878;2023-02-14T10:15:56;102272.40;;;3.68;77.41
50682;BME280;36779;52.168;20.878;2023-02-14T10:18:34;102275.16;;;3.62;77.27
50682;BME280;36779;52.168;20.878;2023-02-14T10:21:07;102271.35;;;3.53;77.32
50682;BME280;36779;52.168;20.878;2023-02-14T10:23:44;102271.10;;;3.54;77.65
50682;BME280;36779;52.168;20.878;2023-02-14T10:26:20;102268.52;;;3.61;77.68
50682;BME280;36779;52.168;20.878;2023-02-14T10:28:53;102261.65;;;3.69;77.89
50682;BME280;36779;52.168;20.878;2023-02-14T10:31:29;102259.77;;;3.75;77.72
50682;BME280;36779;52.168;20.878;2023-02-14T10:34:06;102265.19;;;3.79;77.68
50682;BME280;36779;52.168;20.878;2023-02-14T10:36:47;102264.58;;;3.88;77.98
50682;BME280;36779;52.168;20.878;2023-02-14T10:39:30;102263.39;;;3.95;77.76
50682;BME280;36779;52.168;20.878;2023-02-14T10:42:11;102263.55;;;3.99;77.89
50682;BME280;36779;52.168;20.878;2023-02-14T10:44:53;102266.35;;;4.03;77.79
50682;BME280;36779;52.168;20.878;2023-02-14T10:47:37;102268.98;;;4.07;77.64
50682;BME280;36779;52.168;20.878;2023-02-14T10:50:17;102270.48;;;4.09;77.63
50682;BME280;36779;52.168;20.878;2023-02-14T10:52:54;102270.36;;;4.11;77.65
50682;BME280;36779;52.168;20.878;2023-02-14T10:55:41;102265.78;;;4.18;77.75
50682;BME280;36779;52.168;20.878;2023-02-14T10:58:17;102265.66;;;4.21;77.58
50682;BME280;36779;52.168;20.878;2023-02-14T11:00:54;102263.16;;;4.21;77.75
50682;BME280;36779;52.168;20.878;2023-02-14T11:03:27;102263.52;;;4.18;77.54
50682;BME280;36779;52.168;20.878;2023-02-14T11:05:57;102259.30;;;4.14;77.46
50682;BME280;36779;52.168;20.878;2023-02-14T11:08:30;102260.63;;;4.16;77.64
50682;BME280;36779;52.168;20.878;2023-02-14T11:11:03;102258.80;;;4.20;77.65
50682;BME280;36779;52.168;20.878;2023-02-14T11:13:37;102260.14;;;4.22;77.53
50682;BME280;36779;52.168;20.878;2023-02-14T11:16:08;102259.20;;;4.23;77.41
50682;BME280;36779;52.168;20.878;2023-02-14T11:18:39;102252.92;;;4.22;77.57
50682;BME280;36779;52.168;20.878;2023-02-14T11:21:10;102255.52;;;4.23;77.55
50682;BME280;36779;52.168;20.878;2023-02-14T11:23:41;102259.05;;;4.26;77.69
50682;BME280;36779;52.168;20.878;2023-02-14T11:26:21;102258.77;;;4.32;77.63
50682;BME280;36779;52.168;20.878;2023-02-14T11:28:54;102257.17;;;4.36;77.59
50682;BME280;36779;52.168;20.878;2023-02-14T11:31:29;102257.91;;;4.39;77.69
50682;BME280;36779;52.168;20.878;2023-02-14T11:34:03;102260.31;;;4.43;77.68
50682;BME280;36779;52.168;20.878;2023-02-14T11:36:39;102256.64;;;4.46;77.57
50682;BME280;36779;52.168;20.878;2023-02-14T11:39:20;102245.89;;;4.47;77.62
50682;BME280;36779;52.168;20.878;2023-02-14T11:41:55;102246.56;;;4.44;77.50
50682;BME280;36779;52.168;20.878;2023-02-14T11:44:26;102242.36;;;4.43;77.55
50682;BME280;36779;52.168;20.878;2023-02-14T11:46:56;102237.56;;;4.44;77.57
50682;BME280;36779;52.168;20.878;2023-02-14T11:49:36;102227.54;;;4.47;77.61
50682;BME280;36779;52.168;20.878;2023-02-14T11:52:10;102227.98;;;4.53;77.67
50682;BME280;36779;52.168;20.878;2023-02-14T11:54:42;102231.09;;;4.54;77.63
50682;BME280;36779;52.168;20.878;2023-02-14T11:57:20;102228.75;;;4.52;77.42
50682;BME280;36779;52.168;20.878;2023-02-14T11:59:52;102226.52;;;4.43;77.25
50682;BME280;36779;52.168;20.878;2023-02-14T12:02:29;102225.91;;;4.38;77.38
50682;BME280;36779;52.168;20.878;2023-02-14T12:05:03;102225.98;;;4.43;77.72
50682;BME280;36779;52.168;20.878;2023-02-14T12:07:36;102223.68;;;4.50;77.64
50682;BME280;36779;52.168;20.878;2023-02-14T12:10:20;102222.48;;;4.57;77.77
50682;BME280;36779;52.168;20.878;2023-02-14T12:12:51;102223.33;;;4.61;77.56
50682;BME280;36779;52.168;20.878;2023-02-14T12:15:35;102226.71;;;4.64;77.56
50682;BME280;36779;52.168;20.878;2023-02-14T12:21:19;102222.66;;;4.64;77.55
50682;BME280;36779;52.168;20.878;2023-02-14T12:23:55;102220.04;;;4.63;77.54
50682;BME280;36779;52.168;20.878;2023-02-14T12:26:36;102218.64;;;4.63;77.55
50682;BME280;36779;52.168;20.878;2023-02-14T12:29:14;102219.23;;;4.66;77.48
50682;BME280;36779;52.168;20.878;2023-02-14T12:31:48;102217.73;;;4.74;77.70
50682;BME280;36779;52.168;20.878;2023-02-14T12:34:18;102219.73;;;4.79;77.56
50682;BME280;36779;52.168;20.878;2023-02-14T12:37:03;102218.45;;;4.81;77.64
50682;BME280;36779;52.168;20.878;2023-02-14T12:39:41;102222.82;;;4.78;77.46
50682;BME280;36779;52.168;20.878;2023-02-14T12:42:33;102224.96;;;4.67;77.21
50682;BME280;36779;52.168;20.878;2023-02-14T12:45:11;102217.02;;;4.57;77.29
50682;BME280;36779;52.168;20.878;2023-02-14T12:47:54;102216.88;;;4.56;77.55
50682;BME280;36779;52.168;20.878;2023-02-14T12:50:34;102215.49;;;4.63;77.57
50682;BME280;36779;52.168;20.878;2023-02-14T12:56:10;102208.02;;;4.64;77.47
50682;BME280;36779;52.168;20.878;2023-02-14T12:58:48;102208.61;;;4.66;77.53
50682;BME280;36779;52.168;20.878;2023-02-14T13:05:01;102203.02;;;4.69;77.60
50682;BME280;36779;52.168;20.878;2023-02-14T13:07:50;102199.27;;;4.73;77.64
50682;BME280;36779;52.168;20.878;2023-02-14T13:10:38;102193.55;;;4.78;77.61
50682;BME280;36779;52.168;20.878;2023-02-14T13:13:20;102197.42;;;4.85;77.60
50682;BME280;36779;52.168;20.878;2023-02-14T13:15:55;102199.52;;;4.89;77.60
50682;BME280;36779;52.168;20.878;2023-02-14T13:18:36;102197.70;;;4.89;77.50
50682;BME280;36779;52.168;20.878;2023-02-14T13:21:10;102199.23;;;4.91;77.54
50682;BME280;36779;52.168;20.878;2023-02-14T13:23:44;102204.29;;;4.95;77.64
50682;BME280;36779;52.168;20.878;2023-02-14T13:26:17;102205.58;;;4.98;77.60
50682;BME280;36779;52.168;20.878;2023-02-14T13:28:50;102203.71;;;4.96;77.56
50682;BME280;36779;52.168;20.878;2023-02-14T13:31:20;102207.44;;;4.99;77.58
50682;BME280;36779;52.168;20.878;2023-02-14T13:33:56;102208.67;;;4.99;77.58
50682;BME280;36779;52.168;20.878;2023-02-14T13:36:26;102208.79;;;4.96;77.40
50682;BME280;36779;52.168;20.878;2023-02-14T13:38:57;102209.83;;;4.97;77.42
50682;BME280;36779;52.168;20.878;2023-02-14T13:41:28;102206.40;;;4.98;77.43